sensor_id;sensor_type;location;lat;lon;timestamp;temperature;humidity
46117;DHT22;32591;48.102;11.772;2024-03-25T00:00:35;3.40;99.90
46117;DHT22;32591;48.102;11.772;2024-03-25T00:03:03;3.50;99.90
46117;DHT22;32591;48.102;11.772;2024-03-25T00:05:30;3.50;99.90
46117;DHT22;32591;48.102;11.772;2024-03-25T00:07:58;3.50;99.90
46117;DHT22;32591;48.102;11.772;2024-03-25T00:10:25;3.50;99.90
46117;DHT22;32591;48.102;11.772;2024-03-25T00:12:51;3.50;99.90
46117;DHT22;32591;48.102;11.772;2024-03-25T00:15:21;3.50;99.90
46117;DHT22;32591;48.102;11.772;2024-03-25T00:17:49;3.50;99.90
46117;DHT22;32591;48.102;11.772;2024-03-25T00:20:18;3.40;99.90
46117;DHT22;32591;48.102;11.772;2024-03-25T00:22:44;3.50;99.90
46117;DHT22;32591;48.102;11.772;2024-03-25T00:25:12;3.50;99.90
46117;DHT22;32591;48.102;11.772;2024-03-25T00:27:38;3.50;99.90
46117;DHT22;32591;48.102;11.772;2024-03-25T00:30:06;3.50;99.90
46117;DHT22;32591;48.102;11.772;2024-03-25T00:32:35;3.50;99.90
46117;DHT22;32591;48.102;11.772;2024-03-25T00:35:03;3.50;99.90
46117;DHT22;32591;48.102;11.772;2024-03-25T00:37:30;3.50;99.90
46117;DHT22;32591;48.102;11.772;2024-03-25T00:39:57;3.50;99.90
46117;DHT22;32591;48.102;11.772;2024-03-25T00:42:24;3.50;99.90
46117;DHT22;32591;48.102;11.772;2024-03-25T00:44:51;3.50;99.90
46117;DHT22;32591;48.102;11.772;2024-03-25T00:47:17;3.50;99.90
46117;DHT22;32591;48.102;11.772;2024-03-25T00:49:44;3.50;99.90
46117;DHT22;32591;48.102;11.772;2024-03-25T00:52:10;3.50;99.90
46117;DHT22;32591;48.102;11.772;2024-03-25T00:54:39;3.60;99.90
46117;DHT22;32591;48.102;11.772;2024-03-25T00:57:05;3.60;99.90
46117;DHT22;32591;48.102;11.772;2024-03-25T00:59:33;3.60;99.90
46117;DHT22;32591;48.102;11.772;2024-03-25T01:01:59;3.60;99.90
46117;DHT22;32591;48.102;11.772;2024-03-25T01:04:26;3.60;99.90
46117;DHT22;32591;48.102;11.772;2024-03-25T01:06:53;3.60;99.90
46117;DHT22;32591;48.102;11.772;2024-03-25T01:09:20;3.60;99.90
46117;DHT22;32591;48.102;11.772;2024-03-25T01:11:49;3.60;99.90
46117;DHT22;32591;48.102;11.772;2024-03-25T01:14:24;3.60;99.90
46117;DHT22;32591;48.102;11.772;2024-03-25T01:16:50;3.50;99.90
46117;DHT22;32591;48.102;11.772;2024-03-25T01:19:17;3.50;99.90
46117;DHT22;32591;48.102;11.772;2024-03-25T01:21:43;3.50;99.90
46117;DHT22;32591;48.102;11.772;2024-03-25T01:24:11;3.50;99.90
46117;DHT22;32591;48.102;11.772;2024-03-25T01:26:37;3.50;99.90
46117;DHT22;32591;48.102;11.772;2024-03-25T01:29:06;3.50;99.90
46117;DHT22;32591;48.102;11.772;2024-03-25T01:31:33;3.50;99.90
46117;DHT22;32591;48.102;11.772;2024-03-25T01:34:00;3.50;99.90
46117;DHT22;32591;48.102;11.772;2024-03-25T01:36:26;3.50;99.90
46117;DHT22;32591;48.102;11.772;2024-03-25T01:38:53;3.50;99.90
46117;DHT22;32591;48.102;11.772;2024-03-25T01:41:22;3.50;99.90
46117;DHT22;32591;48.102;11.772;2024-03-25T01:43:50;3.50;99.90
46117;DHT22;32591;48.102;11.772;2024-03-25T01:46:18;3.50;99.90
46117;DHT22;32591;48.102;11.772;2024-03-25T01:48:47;3.50;99.90
46117;DHT22;32591;48.102;11.772;2024-03-25T01:51:16;3.50;99.90
46117;DHT22;32591;48.102;11.772;2024-03-25T01:53:44;3.10;99.90
46117;DHT22;32591;48.102;11.772;2024-03-25T01:56:12;3.50;99.90
46117;DHT22;32591;48.102;11.772;2024-03-25T01:58:40;3.50;99.90
46117;DHT22;32591;48.102;11.772;2024-03-25T02:05:34;3.50;99.90
46117;DHT22;32591;48.102;11.772;2024-03-25T02:08:03;3.50;99.90
46117;DHT22;32591;48.102;11.772;2024-03-25T02:10:29;3.40;99.90
46117;DHT22;32591;48.102;11.772;2024-03-25T02:12:57;3.40;99.90
46117;DHT22;32591;48.102;11.772;2024-03-25T02:15:23;3.40;99.90
46117;DHT22;32591;48.102;11.772;2024-03-25T02:17:52;3.40;99.90
46117;DHT22;32591;48.102;11.772;2024-03-25T02:20:18;3.40;99.90
46117;DHT22;32591;48.102;11.772;2024-03-25T02:22:47;3.40;99.90
46117;DHT22;32591;48.102;11.772;2024-03-25T02:25:14;3.40;99.90
46117;DHT22;32591;48.102;11.772;2024-03-25T02:27:44;3.40;99.90
46117;DHT22;32591;48.102;11.772;2024-03-25T02:30:12;3.40;99.90
46117;DHT22;32591;48.102;11.772;2024-03-25T02:32:40;3.40;99.90
46117;DHT22;32591;48.102;11.772;2024-03-25T02:35:08;3.40;99.90
46117;DHT22;32591;48.102;11.772;2024-03-25T02:37:38;3.30;99.90
46117;DHT22;32591;48.102;11.772;2024-03-25T02:40:06;3.30;99.90
46117;DHT22;32591;48.102;11.772;2024-03-25T02:42:36;3.40;99.90
46117;DHT22;32591;48.102;11.772;2024-03-25T02:45:04;3.40;99.90
46117;DHT22;32591;48.102;11.772;2024-03-25T02:47:32;3.40;99.90
46117;DHT22;32591;48.102;11.772;2024-03-25T02:49:58;3.40;99.90
46117;DHT22;32591;48.102;11.772;2024-03-25T02:52:26;3.50;99.90
46117;DHT22;32591;48.102;11.772;2024-03-25T02:54:53;3.50;99.90
46117;DHT22;32591;48.102;11.772;2024-03-25T02:57:20;3.50;99.90
46117;DHT22;32591;48.102;11.772;2024-03-25T02:59:47;3.40;99.90
46117;DHT22;32591;48.102;11.772;2024-03-25T03:02:15;3.50;99.90
46117;DHT22;32591;48.102;11.772;2024-03-25T03:04:42;3.50;99.90
46117;DHT22;32591;48.102;11.772;2024-03-25T03:07:08;3.50;99.90
46117;DHT22;32591;48.102;11.772;2024-03-25T03:09:37;3.50;99.90
46117;DHT22;32591;48.102;11.772;2024-03-25T03:12:04;3.50;99.90
46117;DHT22;32591;48.102;11.772;2024-03-25T03:14:31;3.50;99.90
46117;DHT22;32591;48.102;11.772;2024-03-25T03:16:57;3.50;99.90
46117;DHT22;32591;48.102;11.772;2024-03-25T03:19:27;3.50;99.90
46117;DHT22;32591;48.102;11.772;2024-03-25T03:21:53;3.60;99.90
46117;DHT22;32591;48.102;11.772;2024-03-25T03:24:20;3.60;99.90
46117;DHT22;32591;48.102;11.772;2024-03-25T03:26:46;3.60;99.90
46117;DHT22;32591;48.102;11.772;2024-03-25T03:29:13;3.60;99.90
46117;DHT22;32591;48.102;11.772;2024-03-25T03:31:40;3.60;99.90
46117;DHT22;32591;48.102;11.772;2024-03-25T03:34:07;3.60;99.90
46117;DHT22;32591;48.102;11.772;2024-03-25T03:36:34;3.50;99.90
46117;DHT22;32591;48.102;11.772;2024-03-25T03:39:02;3.50;99.90
46117;DHT22;32591;48.102;11.772;2024-03-25T03:41:29;3.50;99.90
46117;DHT22;32591;48.102;11.772;2024-03-25T03:43:56;3.50;99.90
46117;DHT22;32591;48.102;11.772;2024-03-25T03:46:22;3.50;99.90
46117;DHT22;32591;48.102;11.772;2024-03-25T03:48:50;3.50;99.90
46117;DHT22;32591;48.102;11.772;2024-03-25T03:51:16;3.60;99.90
46117;DHT22;32591;48.102;11.772;2024-03-25T03:53:44;3.60;99.90
46117;DHT22;32591;48.102;11.772;2024-03-25T03:56:11;3.60;99.90
46117;DHT22;32591;48.102;11.772;2024-03-25T03:58:38;3.60;99.90
46117;DHT22;32591;48.102;11.772;2024-03-25T04:01:04;3.50;99.90
46117;DHT22;32591;48.102;11.772;2024-03-25T04:03:31;3.50;99.90
46117;DHT22;32591;48.102;11.772;2024-03-25T04:05:57;3.50;99.90
46117;DHT22;32591;48.102;11.772;2024-03-25T04:08:24;3.50;99.90
46117;DHT22;32591;48.102;11.772;2024-03-25T04:10:53;3.40;99.90
46117;DHT22;32591;48.102;11.772;2024-03-25T04:13:19;3.40;99.90
46117;DHT22;32591;48.102;11.772;2024-03-25T04:15:46;3.40;99.90
46117;DHT22;32591;48.102;11.772;2024-03-25T04:18:12;3.30;99.90
46117;DHT22;32591;48.102;11.772;2024-03-25T04:20:40;3.30;99.90
46117;DHT22;32591;48.102;11.772;2024-03-25T04:23:07;3.20;99.90
46117;DHT22;32591;48.102;11.772;2024-03-25T04:25:35;3.20;99.90
46117;DHT22;32591;48.102;11.772;2024-03-25T04:28:05;3.10;99.90
46117;DHT22;32591;48.102;11.772;2024-03-25T04:30:32;3.10;99.90
46117;DHT22;32591;48.102;11.772;2024-03-25T04:32:59;3.00;99.90
46117;DHT22;32591;48.102;11.772;2024-03-25T04:35:27;3.00;99.90
46117;DHT22;32591;48.102;11.772;2024-03-25T04:37:53;3.00;99.90
46117;DHT22;32591;48.102;11.772;2024-03-25T04:40:19;3.00;99.90
46117;DHT22;32591;48.102;11.772;2024-03-25T04:42:46;3.00;99.90
46117;DHT22;32591;48.102;11.772;2024-03-25T04:45:13;3.00;99.90
46117;DHT22;32591;48.102;11.772;2024-03-25T04:47:40;2.90;99.90
46117;DHT22;32591;48.102;11.772;2024-03-25T04:50:07;2.80;99.90
46117;DHT22;32591;48.102;11.772;2024-03-25T04:52:33;2.80;99.90
46117;DHT22;32591;48.102;11.772;2024-03-25T04:55:00;2.90;99.90
46117;DHT22;32591;48.102;11.772;2024-03-25T04:57:26;2.90;99.90
46117;DHT22;32591;48.102;11.772;2024-03-25T04:59:52;2.80;99.90
46117;DHT22;32591;48.102;11.772;2024-03-25T05:02:20;2.80;99.90
46117;DHT22;32591;48.102;11.772;2024-03-25T05:04:46;2.80;99.90
46117;DHT22;32591;48.102;11.772;2024-03-25T05:07:12;2.80;99.90
46117;DHT22;32591;48.102;11.772;2024-03-25T05:09:38;2.80;99.90
46117;DHT22;32591;48.102;11.772;2024-03-25T05:12:05;2.80;99.90
46117;DHT22;32591;48.102;11.772;2024-03-25T05:14:31;2.80;99.90
46117;DHT22;32591;48.102;11.772;2024-03-25T05:16:58;2.80;99.90
46117;DHT22;32591;48.102;11.772;2024-03-25T05:19:25;2.80;99.90
46117;DHT22;32591;48.102;11.772;2024-03-25T05:21:52;2.80;99.90
46117;DHT22;32591;48.102;11.772;2024-03-25T05:24:18;2.80;99.90
46117;DHT22;32591;48.102;11.772;2024-03-25T05:26:44;2.80;99.90
46117;DHT22;32591;48.102;11.772;2024-03-25T05:29:11;2.80;99.90
46117;DHT22;32591;48.102;11.772;2024-03-25T05:31:37;2.80;99.90
46117;DHT22;32591;48.102;11.772;2024-03-25T05:34:05;2.90;99.90
46117;DHT22;32591;48.102;11.772;2024-03-25T05:36:33;2.90;99.90
46117;DHT22;32591;48.102;11.772;2024-03-25T05:38:59;2.90;99.90
46117;DHT22;32591;48.102;11.772;2024-03-25T05:41:25;2.90;99.90
46117;DHT22;32591;48.102;11.772;2024-03-25T05:43:52;2.90;99.90
46117;DHT22;32591;48.102;11.772;2024-03-25T05:46:19;2.90;99.90
46117;DHT22;32591;48.102;11.772;2024-03-25T05:48:45;2.90;99.90
46117;DHT22;32591;48.102;11.772;2024-03-25T05:51:11;2.90;99.90
46117;DHT22;32591;48.102;11.772;2024-03-25T05:53:39;2.90;99.90
46117;DHT22;32591;48.102;11.772;2024-03-25T05:56:05;2.90;99.90
46117;DHT22;32591;48.102;11.772;2024-03-25T05:58:32;2.90;99.90
46117;DHT22;32591;48.102;11.772;2024-03-25T06:00:58;3.00;99.90
46117;DHT22;32591;48.102;11.772;2024-03-25T06:03:24;3.10;99.90
46117;DHT22;32591;48.102;11.772;2024-03-25T06:05:51;3.20;99.90
46117;DHT22;32591;48.102;11.772;2024-03-25T06:08:17;3.20;99.90
46117;DHT22;32591;48.102;11.772;2024-03-25T06:10:45;3.30;99.90
46117;DHT22;32591;48.102;11.772;2024-03-25T06:13:11;3.30;99.90
46117;DHT22;32591;48.102;11.772;2024-03-25T06:15:38;3.30;99.90
46117;DHT22;32591;48.102;11.772;2024-03-25T06:18:04;3.40;99.90
46117;DHT22;32591;48.102;11.772;2024-03-25T06:20:30;3.40;99.90
46117;DHT22;32591;48.102;11.772;2024-03-25T06:22:57;3.30;99.90
46117;DHT22;32591;48.102;11.772;2024-03-25T06:25:23;3.30;99.90
46117;DHT22;32591;48.102;11.772;2024-03-25T06:27:51;3.40;99.90
46117;DHT22;32591;48.102;11.772;2024-03-25T06:30:17;3.40;99.90
46117;DHT22;32591;48.102;11.772;2024-03-25T06:33:02;3.50;99.90
46117;DHT22;32591;48.102;11.772;2024-03-25T06:35:47;3.50;99.90
46117;DHT22;32591;48.102;11.772;2024-03-25T06:38:13;3.60;99.90
46117;DHT22;32591;48.102;11.772;2024-03-25T06:40:39;3.80;99.90
46117;DHT22;32591;48.102;11.772;2024-03-25T06:43:07;3.80;99.90
46117;DHT22;32591;48.102;11.772;2024-03-25T06:45:33;3.80;99.90
46117;DHT22;32591;48.102;11.772;2024-03-25T06:48:00;3.90;99.90
46117;DHT22;32591;48.102;11.772;2024-03-25T06:50:26;3.90;99.90
46117;DHT22;32591;48.102;11.772;2024-03-25T06:52:53;4.00;99.90
46117;DHT22;32591;48.102;11.772;2024-03-25T06:55:19;4.00;99.90
46117;DHT22;32591;48.102;11.772;2024-03-25T06:57:46;4.10;99.90
46117;DHT22;32591;48.102;11.772;2024-03-25T07:00:14;4.10;99.90
46117;DHT22;32591;48.102;11.772;2024-03-25T07:02:40;4.20;99.90
46117;DHT22;32591;48.102;11.772;2024-03-25T07:05:07;4.30;99.90
46117;DHT22;32591;48.102;11.772;2024-03-25T07:07:33;4.40;99.90
46117;DHT22;32591;48.102;11.772;2024-03-25T07:10:00;4.50;99.90
46117;DHT22;32591;48.102;11.772;2024-03-25T07:12:26;4.60;99.90
46117;DHT22;32591;48.102;11.772;2024-03-25T07:14:52;4.70;99.90
46117;DHT22;32591;48.102;11.772;2024-03-25T07:17:20;4.90;99.90
46117;DHT22;32591;48.102;11.772;2024-03-25T07:19:46;5.10;99.90
46117;DHT22;32591;48.102;11.772;2024-03-25T07:22:13;5.20;99.90
46117;DHT22;32591;48.102;11.772;2024-03-25T07:24:39;5.20;99.90
46117;DHT22;32591;48.102;11.772;2024-03-25T07:27:05;5.20;99.90
46117;DHT22;32591;48.102;11.772;2024-03-25T07:29:32;5.20;99.90
46117;DHT22;32591;48.102;11.772;2024-03-25T07:31:58;5.10;99.90
46117;DHT22;32591;48.102;11.772;2024-03-25T07:34:26;5.00;99.90
46117;DHT22;32591;48.102;11.772;2024-03-25T07:36:52;5.10;99.90
46117;DHT22;32591;48.102;11.772;2024-03-25T07:39:18;5.10;99.90
46117;DHT22;32591;48.102;11.772;2024-03-25T07:41:44;5.20;99.90
46117;DHT22;32591;48.102;11.772;2024-03-25T07:44:11;5.20;99.90
46117;DHT22;32591;48.102;11.772;2024-03-25T07:46:37;5.40;99.90
46117;DHT22;32591;48.102;11.772;2024-03-25T07:49:03;5.60;99.90
46117;DHT22;32591;48.102;11.772;2024-03-25T07:51:31;5.80;99.90
46117;DHT22;32591;48.102;11.772;2024-03-25T07:53:57;5.90;99.90
46117;DHT22;32591;48.102;11.772;2024-03-25T07:56:23;6.00;99.90
46117;DHT22;32591;48.102;11.772;2024-03-25T07:58:49;6.10;99.90
46117;DHT22;32591;48.102;11.772;2024-03-25T08:01:16;6.30;99.90
46117;DHT22;32591;48.102;11.772;2024-03-25T08:03:42;6.40;99.90
46117;DHT22;32591;48.102;11.772;2024-03-25T08:06:08;6.40;99.90
46117;DHT22;32591;48.102;11.772;2024-03-25T08:08:36;6.60;99.90
46117;DHT22;32591;48.102;11.772;2024-03-25T08:11:03;6.40;99.90
46117;DHT22;32591;48.102;11.772;2024-03-25T08:13:29;6.20;99.90
46117;DHT22;32591;48.102;11.772;2024-03-25T08:15:55;6.20;99.90
46117;DHT22;32591;48.102;11.772;2024-03-25T08:18:21;6.10;99.90
46117;DHT22;32591;48.102;11.772;2024-03-25T08:20:47;6.20;99.90
46117;DHT22;32591;48.102;11.772;2024-03-25T08:23:14;6.30;99.90
46117;DHT22;32591;48.102;11.772;2024-03-25T08:25:41;6.30;99.90
46117;DHT22;32591;48.102;11.772;2024-03-25T08:28:08;6.30;99.90
46117;DHT22;32591;48.102;11.772;2024-03-25T08:30:34;6.30;99.90
46117;DHT22;32591;48.102;11.772;2024-03-25T08:33:01;6.40;99.90
46117;DHT22;32591;48.102;11.772;2024-03-25T08:35:27;6.60;99.90
46117;DHT22;32591;48.102;11.772;2024-03-25T08:37:53;6.70;99.90
46117;DHT22;32591;48.102;11.772;2024-03-25T08:40:20;6.90;99.90
46117;DHT22;32591;48.102;11.772;2024-03-25T08:42:47;7.00;99.90
46117;DHT22;32591;48.102;11.772;2024-03-25T08:45:14;7.00;99.90
46117;DHT22;32591;48.102;11.772;2024-03-25T08:47:40;7.20;99.90
46117;DHT22;32591;48.102;11.772;2024-03-25T08:50:07;7.20;99.90
46117;DHT22;32591;48.102;11.772;2024-03-25T08:52:33;7.20;99.90
46117;DHT22;32591;48.102;11.772;2024-03-25T08:55:00;7.30;99.90
46117;DHT22;32591;48.102;11.772;2024-03-25T08:57:26;7.40;99.90
46117;DHT22;32591;48.102;11.772;2024-03-25T08:59:53;7.50;99.90
46117;DHT22;32591;48.102;11.772;2024-03-25T09:02:20;7.40;99.90
46117;DHT22;32591;48.102;11.772;2024-03-25T09:04:46;7.40;99.90
46117;DHT22;32591;48.102;11.772;2024-03-25T09:07:14;7.30;99.90
46117;DHT22;32591;48.102;11.772;2024-03-25T09:09:40;7.30;99.90
46117;DHT22;32591;48.102;11.772;2024-03-25T09:12:25;7.30;99.90
46117;DHT22;32591;48.102;11.772;2024-03-25T09:14:51;7.40;99.90
46117;DHT22;32591;48.102;11.772;2024-03-25T09:17:19;7.70;99.90
46117;DHT22;32591;48.102;11.772;2024-03-25T09:19:45;7.90;99.90
46117;DHT22;32591;48.102;11.772;2024-03-25T09:22:11;8.00;99.90
46117;DHT22;32591;48.102;11.772;2024-03-25T09:24:38;8.10;99.90
46117;DHT22;32591;48.102;11.772;2024-03-25T09:27:04;8.20;99.90
46117;DHT22;32591;48.102;11.772;2024-03-25T09:29:30;8.40;99.90
46117;DHT22;32591;48.102;11.772;2024-03-25T09:31:57;8.40;99.90
46117;DHT22;32591;48.102;11.772;2024-03-25T09:34:24;8.40;99.90
46117;DHT22;32591;48.102;11.772;2024-03-25T09:36:51;8.50;98.80
46117;DHT22;32591;48.102;11.772;2024-03-25T09:39:17;8.60;98.50
46117;DHT22;32591;48.102;11.772;2024-03-25T09:41:43;8.50;96.90
46117;DHT22;32591;48.102;11.772;2024-03-25T09:44:11;8.50;97.40
46117;DHT22;32591;48.102;11.772;2024-03-25T09:46:37;8.60;97.40
46117;DHT22;32591;48.102;11.772;2024-03-25T09:49:04;8.60;96.10
46117;DHT22;32591;48.102;11.772;2024-03-25T09:51:32;8.80;95.80
46117;DHT22;32591;48.102;11.772;2024-03-25T09:53:58;8.70;95.40
46117;DHT22;32591;48.102;11.772;2024-03-25T09:56:25;8.50;94.40
46117;DHT22;32591;48.102;11.772;2024-03-25T09:58:51;8.40;95.30
46117;DHT22;32591;48.102;11.772;2024-03-25T10:01:18;8.50;93.60
46117;DHT22;32591;48.102;11.772;2024-03-25T10:03:44;8.40;93.00
46117;DHT22;32591;48.102;11.772;2024-03-25T10:06:10;8.50;92.00
46117;DHT22;32591;48.102;11.772;2024-03-25T10:08:38;8.30;93.20
46117;DHT22;32591;48.102;11.772;2024-03-25T10:11:04;8.20;93.40
46117;DHT22;32591;48.102;11.772;2024-03-25T10:13:30;8.00;91.90
46117;DHT22;32591;48.102;11.772;2024-03-25T10:15:57;8.00;93.10
46117;DHT22;32591;48.102;11.772;2024-03-25T10:18:23;8.20;90.40
46117;DHT22;32591;48.102;11.772;2024-03-25T10:20:49;8.30;90.20
46117;DHT22;32591;48.102;11.772;2024-03-25T10:23:20;8.40;90.10
46117;DHT22;32591;48.102;11.772;2024-03-25T10:25:48;8.90;91.00
46117;DHT22;32591;48.102;11.772;2024-03-25T10:28:15;8.80;88.40
46117;DHT22;32591;48.102;11.772;2024-03-25T10:30:41;8.90;88.90
46117;DHT22;32591;48.102;11.772;2024-03-25T10:33:08;9.10;85.40
46117;DHT22;32591;48.102;11.772;2024-03-25T10:35:37;9.20;86.90
46117;DHT22;32591;48.102;11.772;2024-03-25T10:38:05;9.30;83.20
46117;DHT22;32591;48.102;11.772;2024-03-25T10:40:32;9.30;84.10
46117;DHT22;32591;48.102;11.772;2024-03-25T10:43:04;9.20;84.60
46117;DHT22;32591;48.102;11.772;2024-03-25T10:45:34;9.50;83.80
46117;DHT22;32591;48.102;11.772;2024-03-25T10:48:04;9.60;85.80
46117;DHT22;32591;48.102;11.772;2024-03-25T10:50:35;9.90;83.30
46117;DHT22;32591;48.102;11.772;2024-03-25T10:53:04;9.90;84.10
46117;DHT22;32591;48.102;11.772;2024-03-25T10:55:31;10.00;84.10
46117;DHT22;32591;48.102;11.772;2024-03-25T10:57:58;9.90;82.30
46117;DHT22;32591;48.102;11.772;2024-03-25T11:00:27;10.00;83.90
46117;DHT22;32591;48.102;11.772;2024-03-25T11:02:54;10.20;82.60
46117;DHT22;32591;48.102;11.772;2024-03-25T11:05:20;10.30;84.40
46117;DHT22;32591;48.102;11.772;2024-03-25T11:07:47;10.10;82.40
46117;DHT22;32591;48.102;11.772;2024-03-25T11:10:13;10.00;85.00
46117;DHT22;32591;48.102;11.772;2024-03-25T11:12:41;10.00;85.60
46117;DHT22;32591;48.102;11.772;2024-03-25T11:15:08;10.00;84.60
46117;DHT22;32591;48.102;11.772;2024-03-25T11:17:36;9.80;84.00
46117;DHT22;32591;48.102;11.772;2024-03-25T11:20:07;10.00;84.90
46117;DHT22;32591;48.102;11.772;2024-03-25T11:22:47;10.30;84.10
46117;DHT22;32591;48.102;11.772;2024-03-25T11:25:14;10.40;83.80
46117;DHT22;32591;48.102;11.772;2024-03-25T11:27:43;10.50;77.80
46117;DHT22;32591;48.102;11.772;2024-03-25T11:30:10;10.60;77.30
46117;DHT22;32591;48.102;11.772;2024-03-25T11:32:49;10.60;80.20
46117;DHT22;32591;48.102;11.772;2024-03-25T11:35:17;10.60;80.70
46117;DHT22;32591;48.102;11.772;2024-03-25T11:37:44;10.80;80.20
46117;DHT22;32591;48.102;11.772;2024-03-25T11:40:11;10.80;80.30
46117;DHT22;32591;48.102;11.772;2024-03-25T11:42:39;10.90;80.20
46117;DHT22;32591;48.102;11.772;2024-03-25T11:45:05;11.20;81.30
46117;DHT22;32591;48.102;11.772;2024-03-25T11:47:32;11.30;78.00
46117;DHT22;32591;48.102;11.772;2024-03-25T11:50:00;11.30;78.60
46117;DHT22;32591;48.102;11.772;2024-03-25T11:52:33;11.20;78.10
46117;DHT22;32591;48.102;11.772;2024-03-25T11:54:59;11.10;77.70
46117;DHT22;32591;48.102;11.772;2024-03-25T11:57:26;11.20;75.50
46117;DHT22;32591;48.102;11.772;2024-03-25T11:59:54;11.20;78.20
46117;DHT22;32591;48.102;11.772;2024-03-25T12:02:20;11.20;76.10
46117;DHT22;32591;48.102;11.772;2024-03-25T12:04:47;11.50;78.50
46117;DHT22;32591;48.102;11.772;2024-03-25T12:07:15;11.80;76.20
46117;DHT22;32591;48.102;11.772;2024-03-25T12:09:41;11.70;74.60
46117;DHT22;32591;48.102;11.772;2024-03-25T12:12:23;11.50;76.40
46117;DHT22;32591;48.102;11.772;2024-03-25T12:14:49;11.70;79.10
46117;DHT22;32591;48.102;11.772;2024-03-25T12:17:16;11.80;78.50
46117;DHT22;32591;48.102;11.772;2024-03-25T12:19:43;11.90;75.00
46117;DHT22;32591;48.102;11.772;2024-03-25T12:22:09;11.80;71.90
46117;DHT22;32591;48.102;11.772;2024-03-25T12:24:37;11.70;71.70
46117;DHT22;32591;48.102;11.772;2024-03-25T12:27:04;11.70;71.00
46117;DHT22;32591;48.102;11.772;2024-03-25T12:29:31;11.60;71.40
46117;DHT22;32591;48.102;11.772;2024-03-25T12:31:57;11.40;71.80
46117;DHT22;32591;48.102;11.772;2024-03-25T12:34:25;11.40;72.50
46117;DHT22;32591;48.102;11.772;2024-03-25T12:36:51;11.40;72.80
46117;DHT22;32591;48.102;11.772;2024-03-25T12:39:18;11.70;75.40
46117;DHT22;32591;48.102;11.772;2024-03-25T12:41:45;11.90;72.20
46117;DHT22;32591;48.102;11.772;2024-03-25T12:44:12;12.10;73.40
46117;DHT22;32591;48.102;11.772;2024-03-25T12:46:39;12.40;74.60
46117;DHT22;32591;48.102;11.772;2024-03-25T12:49:05;12.50;74.80
46117;DHT22;32591;48.102;11.772;2024-03-25T12:51:32;12.50;75.30
46117;DHT22;32591;48.102;11.772;2024-03-25T12:53:58;12.50;74.00
46117;DHT22;32591;48.102;11.772;2024-03-25T12:56:24;12.50;74.10
46117;DHT22;32591;48.102;11.772;2024-03-25T12:58:52;12.80;70.80
46117;DHT22;32591;48.102;11.772;2024-03-25T13:01:18;12.70;73.50
46117;DHT22;32591;48.102;11.772;2024-03-25T13:03:44;12.80;72.60
46117;DHT22;32591;48.102;11.772;2024-03-25T13:06:11;12.80;72.10
46117;DHT22;32591;48.102;11.772;2024-03-25T13:08:37;12.80;72.20
46117;DHT22;32591;48.102;11.772;2024-03-25T13:11:03;12.80;72.40
46117;DHT22;32591;48.102;11.772;2024-03-25T13:13:30;12.90;71.80
46117;DHT22;32591;48.102;11.772;2024-03-25T13:15:58;12.90;71.20
46117;DHT22;32591;48.102;11.772;2024-03-25T13:18:24;12.90;72.70
46117;DHT22;32591;48.102;11.772;2024-03-25T13:20:50;12.90;72.00
46117;DHT22;32591;48.102;11.772;2024-03-25T13:23:16;13.10;73.40
46117;DHT22;32591;48.102;11.772;2024-03-25T13:25:42;13.40;73.00
46117;DHT22;32591;48.102;11.772;2024-03-25T13:28:09;13.50;70.20
46117;DHT22;32591;48.102;11.772;2024-03-25T13:30:35;13.60;71.20
46117;DHT22;32591;48.102;11.772;2024-03-25T13:33:03;13.80;70.10
46117;DHT22;32591;48.102;11.772;2024-03-25T13:35:30;13.70;69.80
46117;DHT22;32591;48.102;11.772;2024-03-25T13:37:56;13.80;70.40
46117;DHT22;32591;48.102;11.772;2024-03-25T13:40:22;14.00;70.00
46117;DHT22;32591;48.102;11.772;2024-03-25T13:42:48;14.00;69.30
46117;DHT22;32591;48.102;11.772;2024-03-25T13:45:15;14.10;68.20
46117;DHT22;32591;48.102;11.772;2024-03-25T13:47:41;14.00;70.50
46117;DHT22;32591;48.102;11.772;2024-03-25T13:50:09;13.80;67.40
46117;DHT22;32591;48.102;11.772;2024-03-25T13:52:35;13.80;68.50
46117;DHT22;32591;48.102;11.772;2024-03-25T13:55:02;13.80;67.30
46117;DHT22;32591;48.102;11.772;2024-03-25T13:57:28;13.60;68.70
46117;DHT22;32591;48.102;11.772;2024-03-25T13:59:54;13.70;71.80
46117;DHT22;32591;48.102;11.772;2024-03-25T14:02:21;13.60;70.00
46117;DHT22;32591;48.102;11.772;2024-03-25T14:04:49;13.80;73.10
46117;DHT22;32591;48.102;11.772;2024-03-25T14:07:16;13.70;69.70
46117;DHT22;32591;48.102;11.772;2024-03-25T14:09:43;13.80;70.90
46117;DHT22;32591;48.102;11.772;2024-03-25T14:12:09;13.90;67.80
46117;DHT22;32591;48.102;11.772;2024-03-25T14:14:35;13.70;65.90
46117;DHT22;32591;48.102;11.772;2024-03-25T14:17:02;13.40;67.50
46117;DHT22;32591;48.102;11.772;2024-03-25T14:19:28;13.40;69.40
46117;DHT22;32591;48.102;11.772;2024-03-25T14:21:54;13.70;70.10
46117;DHT22;32591;48.102;11.772;2024-03-25T14:24:22;13.80;70.70
46117;DHT22;32591;48.102;11.772;2024-03-25T14:26:48;14.00;68.70
46117;DHT22;32591;48.102;11.772;2024-03-25T14:29:14;14.00;67.50
46117;DHT22;32591;48.102;11.772;2024-03-25T14:31:41;14.00;67.20
46117;DHT22;32591;48.102;11.772;2024-03-25T14:34:07;14.00;68.60
46117;DHT22;32591;48.102;11.772;2024-03-25T14:36:33;14.20;71.30
46117;DHT22;32591;48.102;11.772;2024-03-25T14:38:59;14.40;69.90
46117;DHT22;32591;48.102;11.772;2024-03-25T14:41:27;14.30;69.90
46117;DHT22;32591;48.102;11.772;2024-03-25T14:44:04;14.30;68.70
46117;DHT22;32591;48.102;11.772;2024-03-25T14:46:31;14.50;71.40
46117;DHT22;32591;48.102;11.772;2024-03-25T14:48:57;14.60;69.70
46117;DHT22;32591;48.102;11.772;2024-03-25T14:51:23;14.70;68.80
46117;DHT22;32591;48.102;11.772;2024-03-25T14:53:49;14.60;69.90
46117;DHT22;32591;48.102;11.772;2024-03-25T14:56:16;14.50;69.00
46117;DHT22;32591;48.102;11.772;2024-03-25T14:58:43;14.50;69.70
46117;DHT22;32591;48.102;11.772;2024-03-25T15:01:10;14.60;71.10
46117;DHT22;32591;48.102;11.772;2024-03-25T15:03:36;14.70;72.80
46117;DHT22;32591;48.102;11.772;2024-03-25T15:06:03;14.90;69.10
46117;DHT22;32591;48.102;11.772;2024-03-25T15:08:31;14.80;69.20
46117;DHT22;32591;48.102;11.772;2024-03-25T15:10:58;14.60;70.00
46117;DHT22;32591;48.102;11.772;2024-03-25T15:13:24;14.60;70.70
46117;DHT22;32591;48.102;11.772;2024-03-25T15:15:52;14.80;68.30
46117;DHT22;32591;48.102;11.772;2024-03-25T15:18:18;15.00;66.70
46117;DHT22;32591;48.102;11.772;2024-03-25T15:20:44;15.00;66.70
46117;DHT22;32591;48.102;11.772;2024-03-25T15:23:10;15.10;65.90
46117;DHT22;32591;48.102;11.772;2024-03-25T15:25:36;15.00;66.70
46117;DHT22;32591;48.102;11.772;2024-03-25T15:28:03;14.80;66.80
46117;DHT22;32591;48.102;11.772;2024-03-25T15:30:30;14.80;69.60